sensor_id;sensor_type;location;lat;lon;timestamp;P1;durP1;ratioP1;P2;durP2;ratioP2
9334;SDS011;4706;41.844;26.082;2024-03-23T00:54:10;27.15;;;20.30;;
9334;SDS011;4706;41.844;26.082;2024-03-23T00:56:36;17.60;;;15.88;;
9334;SDS011;4706;41.844;26.082;2024-03-23T00:59:01;16.38;;;14.75;;
9334;SDS011;4706;41.844;26.082;2024-03-23T01:01:27;15.52;;;13.93;;
9334;SDS011;4706;41.844;26.082;2024-03-23T01:03:52;16.00;;;14.40;;
9334;SDS011;4706;41.844;26.082;2024-03-23T01:06:18;21.40;;;16.08;;
9334;SDS011;4706;41.844;26.082;2024-03-23T01:08:43;23.40;;;20.30;;
9334;SDS011;4706;41.844;26.082;2024-03-23T01:11:09;30.38;;;24.60;;
9334;SDS011;4706;41.844;26.082;2024-03-23T01:13:35;32.75;;;29.20;;
9334;SDS011;4706;41.844;26.082;2024-03-23T01:16:00;35.92;;;30.52;;
9334;SDS011;4706;41.844;26.082;2024-03-23T01:18:26;28.65;;;25.95;;
9334;SDS011;4706;41.844;26.082;2024-03-23T01:20:52;27.55;;;25.05;;
9334;SDS011;4706;41.844;26.082;2024-03-23T01:23:17;25.40;;;23.05;;
9334;SDS011;4706;41.844;26.082;2024-03-23T01:25:43;29.08;;;26.58;;
9334;SDS011;4706;41.844;26.082;2024-03-23T01:28:08;27.67;;;25.33;;
9334;SDS011;4706;41.844;26.082;2024-03-23T01:30:35;26.33;;;24.08;;
9334;SDS011;4706;41.844;26.082;2024-03-23T01:33:01;28.38;;;25.60;;
9334;SDS011;4706;41.844;26.082;2024-03-23T01:35:27;28.50;;;26.20;;
9334;SDS011;4706;41.844;26.082;2024-03-23T01:37:53;29.08;;;26.33;;
9334;SDS011;4706;41.844;26.082;2024-03-23T01:40:19;34.20;;;30.90;;
9334;SDS011;4706;41.844;26.082;2024-03-23T01:42:57;35.72;;;32.30;;
9334;SDS011;4706;41.844;26.082;2024-03-23T01:45:24;34.95;;;31.60;;
9334;SDS011;4706;41.844;26.082;2024-03-23T01:47:50;37.65;;;32.33;;
9334;SDS011;4706;41.844;26.082;2024-03-23T01:50:17;25.60;;;22.38;;
9334;SDS011;4706;41.844;26.082;2024-03-23T01:52:43;12.55;;;11.25;;
9334;SDS011;4706;41.844;26.082;2024-03-23T01:55:09;11.18;;;9.90;;
9334;SDS011;4706;41.844;26.082;2024-03-23T01:57:35;9.57;;;8.23;;
9334;SDS011;4706;41.844;26.082;2024-03-23T02:00:00;8.05;;;7.25;;
9334;SDS011;4706;41.844;26.082;2024-03-23T02:02:26;7.60;;;6.82;;
9334;SDS011;4706;41.844;26.082;2024-03-23T02:04:51;8.00;;;7.20;;
9334;SDS011;4706;41.844;26.082;2024-03-23T02:07:17;8.40;;;7.50;;
9334;SDS011;4706;41.844;26.082;2024-03-23T02:09:43;8.70;;;7.82;;
9334;SDS011;4706;41.844;26.082;2024-03-23T02:12:09;8.27;;;6.90;;
9334;SDS011;4706;41.844;26.082;2024-03-23T02:14:34;7.95;;;7.15;;
9334;SDS011;4706;41.844;26.082;2024-03-23T02:17:00;8.40;;;7.60;;
9334;SDS011;4706;41.844;26.082;2024-03-23T02:19:25;8.50;;;7.60;;
9334;SDS011;4706;41.844;26.082;2024-03-23T02:21:51;8.40;;;7.55;;
9334;SDS011;4706;41.844;26.082;2024-03-23T02:24:16;9.52;;;8.52;;
9334;SDS011;4706;41.844;26.082;2024-03-23T02:26:42;9.02;;;8.05;;
9334;SDS011;4706;41.844;26.082;2024-03-23T02:29:07;9.02;;;8.13;;
9334;SDS011;4706;41.844;26.082;2024-03-23T02:31:34;9.00;;;8.10;;
9334;SDS011;4706;41.844;26.082;2024-03-23T02:34:00;9.43;;;7.93;;
9334;SDS011;4706;41.844;26.082;2024-03-23T02:36:26;9.10;;;8.10;;
9334;SDS011;4706;41.844;26.082;2024-03-23T02:38:51;8.45;;;7.57;;
9334;SDS011;4706;41.844;26.082;2024-03-23T02:41:17;9.90;;;7.90;;
9334;SDS011;4706;41.844;26.082;2024-03-23T02:43:48;8.43;;;7.63;;
9334;SDS011;4706;41.844;26.082;2024-03-23T02:46:16;8.70;;;7.80;;
9334;SDS011;4706;41.844;26.082;2024-03-23T02:48:42;9.73;;;7.93;;
9334;SDS011;4706;41.844;26.082;2024-03-23T02:51:08;13.60;;;12.18;;
9334;SDS011;4706;41.844;26.082;2024-03-23T02:53:33;14.95;;;13.40;;
9334;SDS011;4706;41.844;26.082;2024-03-23T02:55:59;14.88;;;13.35;;
9334;SDS011;4706;41.844;26.082;2024-03-23T02:58:25;15.13;;;13.65;;
9334;SDS011;4706;41.844;26.082;2024-03-23T03:00:50;15.20;;;13.73;;
9334;SDS011;4706;41.844;26.082;2024-03-23T03:03:15;15.40;;;13.88;;
9334;SDS011;4706;41.844;26.082;2024-03-23T03:05:41;16.75;;;15.13;;
9334;SDS011;4706;41.844;26.082;2024-03-23T03:08:06;17.58;;;15.77;;
9334;SDS011;4706;41.844;26.082;2024-03-23T03:10:32;18.15;;;16.33;;
9334;SDS011;4706;41.844;26.082;2024-03-23T03:13:00;26.73;;;19.58;;
9334;SDS011;4706;41.844;26.082;2024-03-23T03:15:26;27.27;;;20.00;;
9334;SDS011;4706;41.844;26.082;2024-03-23T03:17:51;12.15;;;10.25;;
9334;SDS011;4706;41.844;26.082;2024-03-23T03:20:17;10.00;;;9.00;;
9334;SDS011;4706;41.844;26.082;2024-03-23T03:22:43;15.40;;;11.77;;
9334;SDS011;4706;41.844;26.082;2024-03-23T03:25:09;23.92;;;20.30;;
9334;SDS011;4706;41.844;26.082;2024-03-23T03:27:34;28.92;;;20.15;;
9334;SDS011;4706;41.844;26.082;2024-03-23T03:30:00;29.38;;;21.08;;
9334;SDS011;4706;41.844;26.082;2024-03-23T03:32:31;33.40;;;24.52;;
9334;SDS011;4706;41.844;26.082;2024-03-23T03:34:57;53.70;;;34.13;;
9334;SDS011;4706;41.844;26.082;2024-03-23T03:37:22;77.40;;;47.33;;
9334;SDS011;4706;41.844;26.082;2024-03-23T03:39:49;129.63;;;78.68;;
9334;SDS011;4706;41.844;26.082;2024-03-23T03:42:15;82.07;;;46.03;;
9334;SDS011;4706;41.844;26.082;2024-03-23T03:44:40;45.97;;;30.42;;
9334;SDS011;4706;41.844;26.082;2024-03-23T03:47:06;37.25;;;22.52;;
9334;SDS011;4706;41.844;26.082;2024-03-23T03:49:32;43.70;;;26.50;;
9334;SDS011;4706;41.844;26.082;2024-03-23T03:51:57;36.47;;;23.05;;
9334;SDS011;4706;41.844;26.082;2024-03-23T03:54:23;31.60;;;20.77;;
9334;SDS011;4706;41.844;26.082;2024-03-23T03:56:48;24.95;;;16.63;;
9334;SDS011;4706;41.844;26.082;2024-03-23T03:59:14;20.33;;;14.85;;
9334;SDS011;4706;41.844;26.082;2024-03-23T04:01:40;15.23;;;11.30;;
9334;SDS011;4706;41.844;26.082;2024-03-23T04:04:06;15.13;;;11.65;;
9334;SDS011;4706;41.844;26.082;2024-03-23T04:06:31;12.88;;;10.20;;
9334;SDS011;4706;41.844;26.082;2024-03-23T04:08:58;13.25;;;10.25;;
9334;SDS011;4706;41.844;26.082;2024-03-23T04:11:24;9.20;;;8.10;;
9334;SDS011;4706;41.844;26.082;2024-03-23T04:13:49;9.75;;;8.75;;
9334;SDS011;4706;41.844;26.082;2024-03-23T04:16:28;9.65;;;8.32;;
9334;SDS011;4706;41.844;26.082;2024-03-23T04:18:54;11.30;;;9.35;;
9334;SDS011;4706;41.844;26.082;2024-03-23T04:21:21;24.35;;;21.30;;
9334;SDS011;4706;41.844;26.082;2024-03-23T04:23:47;59.13;;;51.50;;
9334;SDS011;4706;41.844;26.082;2024-03-23T04:26:13;128.50;;;114.80;;
9334;SDS011;4706;41.844;26.082;2024-03-23T04:28:39;33.63;;;30.35;;
9334;SDS011;4706;41.844;26.082;2024-03-23T04:31:04;31.50;;;28.17;;
9334;SDS011;4706;41.844;26.082;2024-03-23T04:33:30;27.73;;;25.13;;
9334;SDS011;4706;41.844;26.082;2024-03-23T04:35:56;16.23;;;14.63;;
9334;SDS011;4706;41.844;26.082;2024-03-23T04:38:22;12.40;;;11.18;;
9334;SDS011;4706;41.844;26.082;2024-03-23T04:40:54;12.18;;;10.88;;
9334;SDS011;4706;41.844;26.082;2024-03-23T04:43:21;11.20;;;10.10;;
9334;SDS011;4706;41.844;26.082;2024-03-23T04:45:46;12.27;;;10.75;;
9334;SDS011;4706;41.844;26.082;2024-03-23T04:48:12;11.73;;;10.52;;
9334;SDS011;4706;41.844;26.082;2024-03-23T04:50:38;10.93;;;9.82;;
9334;SDS011;4706;41.844;26.082;2024-03-23T04:53:03;12.23;;;10.93;;
9334;SDS011;4706;41.844;26.082;2024-03-23T04:55:29;12.68;;;11.38;;
9334;SDS011;4706;41.844;26.082;2024-03-23T04:57:56;13.70;;;11.98;;
9334;SDS011;4706;41.844;26.082;2024-03-23T05:00:21;14.20;;;12.65;;
9334;SDS011;4706;41.844;26.082;2024-03-23T05:02:48;14.35;;;12.85;;
9334;SDS011;4706;41.844;26.082;2024-03-23T05:05:14;20.75;;;17.85;;
9334;SDS011;4706;41.844;26.082;2024-03-23T05:07:39;16.17;;;14.50;;
9334;SDS011;4706;41.844;26.082;2024-03-23T05:10:06;17.75;;;13.32;;
9334;SDS011;4706;41.844;26.082;2024-03-23T05:12:35;23.38;;;19.40;;
9334;SDS011;4706;41.844;26.082;2024-03-23T05:15:01;17.48;;;15.45;;
9334;SDS011;4706;41.844;26.082;2024-03-23T05:17:26;17.73;;;15.10;;
9334;SDS011;4706;41.844;26.082;2024-03-23T05:19:52;19.23;;;17.15;;
9334;SDS011;4706;41.844;26.082;2024-03-23T05:22:17;33.22;;;26.00;;
9334;SDS011;4706;41.844;26.082;2024-03-23T05:24:44;34.75;;;29.48;;
9334;SDS011;4706;41.844;26.082;2024-03-23T05:27:10;38.28;;;26.70;;
9334;SDS011;4706;41.844;26.082;2024-03-23T05:29:35;35.33;;;26.60;;
9334;SDS011;4706;41.844;26.082;2024-03-23T05:32:01;27.17;;;23.13;;
9334;SDS011;4706;41.844;26.082;2024-03-23T05:34:26;31.33;;;23.83;;
9334;SDS011;4706;41.844;26.082;2024-03-23T05:36:53;26.33;;;22.35;;
9334;SDS011;4706;41.844;26.082;2024-03-23T05:39:19;26.48;;;22.67;;
9334;SDS011;4706;41.844;26.082;2024-03-23T05:41:47;26.63;;;22.02;;
9334;SDS011;4706;41.844;26.082;2024-03-23T05:44:13;27.58;;;23.42;;
9334;SDS011;4706;41.844;26.082;2024-03-23T05:46:39;26.27;;;23.27;;
9334;SDS011;4706;41.844;26.082;2024-03-23T05:49:04;26.25;;;23.42;;
9334;SDS011;4706;41.844;26.082;2024-03-23T05:51:30;26.25;;;21.70;;
9334;SDS011;4706;41.844;26.082;2024-03-23T05:53:56;29.48;;;21.92;;
9334;SDS011;4706;41.844;26.082;2024-03-23T05:56:21;26.65;;;21.92;;
9334;SDS011;4706;41.844;26.082;2024-03-23T05:58:47;36.53;;;28.33;;
9334;SDS011;4706;41.844;26.082;2024-03-23T06:01:13;27.83;;;24.13;;
9334;SDS011;4706;41.844;26.082;2024-03-23T06:03:39;30.02;;;24.60;;
9334;SDS011;4706;41.844;26.082;2024-03-23T06:06:04;27.63;;;24.73;;
9334;SDS011;4706;41.844;26.082;2024-03-23T06:08:35;31.33;;;25.25;;
9334;SDS011;4706;41.844;26.082;2024-03-23T06:11:01;34.60;;;28.58;;
9334;SDS011;4706;41.844;26.082;2024-03-23T06:13:26;34.22;;;30.45;;
9334;SDS011;4706;41.844;26.082;2024-03-23T06:15:55;34.60;;;27.67;;
9334;SDS011;4706;41.844;26.082;2024-03-23T06:18:21;35.10;;;27.63;;
9334;SDS011;4706;41.844;26.082;2024-03-23T06:20:46;42.17;;;29.02;;
9334;SDS011;4706;41.844;26.082;2024-03-23T06:23:12;35.67;;;28.17;;
9334;SDS011;4706;41.844;26.082;2024-03-23T06:25:38;31.63;;;28.00;;
9334;SDS011;4706;41.844;26.082;2024-03-23T06:28:03;33.40;;;26.35;;
9334;SDS011;4706;41.844;26.082;2024-03-23T06:30:29;28.80;;;24.63;;
9334;SDS011;4706;41.844;26.082;2024-03-23T06:32:57;34.42;;;27.48;;
9334;SDS011;4706;41.844;26.082;2024-03-23T06:35:22;35.38;;;25.40;;
9334;SDS011;4706;41.844;26.082;2024-03-23T06:37:48;29.40;;;24.70;;
9334;SDS011;4706;41.844;26.082;2024-03-23T06:40:13;29.30;;;25.00;;
9334;SDS011;4706;41.844;26.082;2024-03-23T06:42:39;29.58;;;23.42;;
9334;SDS011;4706;41.844;26.082;2024-03-23T06:45:05;32.92;;;24.10;;
9334;SDS011;4706;41.844;26.082;2024-03-23T06:47:31;30.25;;;26.00;;
9334;SDS011;4706;41.844;26.082;2024-03-23T06:49:57;31.83;;;26.55;;
9334;SDS011;4706;41.844;26.082;2024-03-23T06:52:23;29.23;;;25.23;;
9334;SDS011;4706;41.844;26.082;2024-03-23T06:54:48;31.95;;;26.00;;
9334;SDS011;4706;41.844;26.082;2024-03-23T06:57:13;37.90;;;26.35;;
9334;SDS011;4706;41.844;26.082;2024-03-23T06:59:39;35.95;;;28.50;;
9334;SDS011;4706;41.844;26.082;2024-03-23T07:02:07;34.05;;;28.92;;
9334;SDS011;4706;41.844;26.082;2024-03-23T07:04:36;38.70;;;27.45;;
9334;SDS011;4706;41.844;26.082;2024-03-23T07:07:01;33.85;;;28.70;;
9334;SDS011;4706;41.844;26.082;2024-03-23T07:09:30;38.03;;;29.73;;
9334;SDS011;4706;41.844;26.082;2024-03-23T07:11:56;34.50;;;28.98;;
9334;SDS011;4706;41.844;26.082;2024-03-23T07:14:22;33.22;;;29.65;;
9334;SDS011;4706;41.844;26.082;2024-03-23T07:16:48;36.95;;;29.33;;
9334;SDS011;4706;41.844;26.082;2024-03-23T07:19:17;34.03;;;29.70;;
9334;SDS011;4706;41.844;26.082;2024-03-23T07:21:43;33.88;;;29.63;;
9334;SDS011;4706;41.844;26.082;2024-03-23T07:24:09;38.20;;;29.13;;
9334;SDS011;4706;41.844;26.082;2024-03-23T07:26:35;34.45;;;28.40;;
9334;SDS011;4706;41.844;26.082;2024-03-23T07:29:01;32.38;;;27.75;;
9334;SDS011;4706;41.844;26.082;2024-03-23T07:31:27;37.55;;;30.00;;
9334;SDS011;4706;41.844;26.082;2024-03-23T07:33:52;35.30;;;28.98;;
9334;SDS011;4706;41.844;26.082;2024-03-23T07:36:18;30.23;;;24.67;;
9334;SDS011;4706;41.844;26.082;2024-03-23T07:38:43;29.55;;;24.27;;
9334;SDS011;4706;41.844;26.082;2024-03-23T07:41:14;28.20;;;21.42;;
9334;SDS011;4706;41.844;26.082;2024-03-23T07:43:45;25.35;;;20.70;;
9334;SDS011;4706;41.844;26.082;2024-03-23T07:46:11;19.48;;;15.07;;
9334;SDS011;4706;41.844;26.082;2024-03-23T07:48:37;21.52;;;18.08;;
9334;SDS011;4706;41.844;26.082;2024-03-23T07:51:05;19.42;;;16.33;;
9334;SDS011;4706;41.844;26.082;2024-03-23T07:53:32;21.55;;;16.73;;
9334;SDS011;4706;41.844;26.082;2024-03-23T07:56:00;18.70;;;15.35;;
9334;SDS011;4706;41.844;26.082;2024-03-23T07:58:29;22.95;;;16.63;;
9334;SDS011;4706;41.844;26.082;2024-03-23T08:00:55;16.38;;;14.68;;
9334;SDS011;4706;41.844;26.082;2024-03-23T08:03:21;20.35;;;15.82;;
9334;SDS011;4706;41.844;26.082;2024-03-23T08:05:48;16.85;;;13.57;;
9334;SDS011;4706;41.844;26.082;2024-03-23T08:08:13;17.85;;;13.07;;
9334;SDS011;4706;41.844;26.082;2024-03-23T08:10:51;13.15;;;11.75;;
9334;SDS011;4706;41.844;26.082;2024-03-23T08:13:18;13.85;;;11.60;;
9334;SDS011;4706;41.844;26.082;2024-03-23T08:15:44;14.85;;;10.13;;
9334;SDS011;4706;41.844;26.082;2024-03-23T08:18:12;11.82;;;10.02;;
9334;SDS011;4706;41.844;26.082;2024-03-23T08:20:38;13.48;;;11.38;;
9334;SDS011;4706;41.844;26.082;2024-03-23T08:23:05;11.27;;;10.10;;
9334;SDS011;4706;41.844;26.082;2024-03-23T08:25:31;10.95;;;9.85;;
9334;SDS011;4706;41.844;26.082;2024-03-23T08:27:57;11.40;;;9.95;;
9334;SDS011;4706;41.844;26.082;2024-03-23T08:30:23;10.43;;;9.25;;
9334;SDS011;4706;41.844;26.082;2024-03-23T08:32:48;10.40;;;9.38;;
9334;SDS011;4706;41.844;26.082;2024-03-23T08:35:14;10.38;;;9.43;;
9334;SDS011;4706;41.844;26.082;2024-03-23T08:37:39;10.93;;;9.82;;
9334;SDS011;4706;41.844;26.082;2024-03-23T08:40:05;10.40;;;9.43;;
9334;SDS011;4706;41.844;26.082;2024-03-23T08:42:31;9.32;;;8.52;;
9334;SDS011;4706;41.844;26.082;2024-03-23T08:44:57;9.90;;;8.90;;
9334;SDS011;4706;41.844;26.082;2024-03-23T08:47:22;10.65;;;9.60;;
9334;SDS011;4706;41.844;26.082;2024-03-23T08:49:48;11.13;;;10.00;;
9334;SDS011;4706;41.844;26.082;2024-03-23T08:52:14;12.57;;;11.38;;
9334;SDS011;4706;41.844;26.082;2024-03-23T08:54:40;11.55;;;10.38;;
9334;SDS011;4706;41.844;26.082;2024-03-23T08:57:05;12.30;;;11.10;;
9334;SDS011;4706;41.844;26.082;2024-03-23T08:59:32;12.77;;;11.55;;
9334;SDS011;4706;41.844;26.082;2024-03-23T09:01:58;13.13;;;11.70;;
9334;SDS011;4706;41.844;26.082;2024-03-23T09:04:23;18.45;;;14.32;;
9334;SDS011;4706;41.844;26.082;2024-03-23T09:06:48;14.45;;;11.88;;
9334;SDS011;4706;41.844;26.082;2024-03-23T09:09:15;13.23;;;11.88;;
9334;SDS011;4706;41.844;26.082;2024-03-23T09:11:40;13.55;;;12.18;;
9334;SDS011;4706;41.844;26.082;2024-03-23T09:14:06;11.55;;;10.45;;
9334;SDS011;4706;41.844;26.082;2024-03-23T09:16:31;11.30;;;10.20;;
9334;SDS011;4706;41.844;26.082;2024-03-23T09:18:57;12.35;;;10.18;;
9334;SDS011;4706;41.844;26.082;2024-03-23T09:21:22;11.95;;;10.63;;
9334;SDS011;4706;41.844;26.082;2024-03-23T09:23:48;10.50;;;9.40;;
9334;SDS011;4706;41.844;26.082;2024-03-23T09:26:14;12.48;;;9.73;;
9334;SDS011;4706;41.844;26.082;2024-03-23T09:28:40;11.57;;;10.38;;
9334;SDS011;4706;41.844;26.082;2024-03-23T09:31:06;9.20;;;8.27;;
9334;SDS011;4706;41.844;26.082;2024-03-23T09:33:33;10.70;;;8.18;;
9334;SDS011;4706;41.844;26.082;2024-03-23T09:36:02;11.52;;;8.13;;
9334;SDS011;4706;41.844;26.082;2024-03-23T09:38:28;10.25;;;8.52;;
9334;SDS011;4706;41.844;26.082;2024-03-23T09:40:54;9.57;;;8.68;;
9334;SDS011;4706;41.844;26.082;2024-03-23T09:43:20;7.95;;;7.25;;
9334;SDS011;4706;41.844;26.082;2024-03-23T09:45:45;8.60;;;6.32;;
9334;SDS011;4706;41.844;26.082;2024-03-23T09:48:11;7.97;;;6.60;;
9334;SDS011;4706;41.844;26.082;2024-03-23T09:50:41;9.48;;;7.03;;
9334;SDS011;4706;41.844;26.082;2024-03-23T09:53:08;7.22;;;6.50;;
9334;SDS011;4706;41.844;26.082;2024-03-23T09:55:35;7.10;;;6.50;;
9334;SDS011;4706;41.844;26.082;2024-03-23T09:58:01;7.13;;;6.43;;
9334;SDS011;4706;41.844;26.082;2024-03-23T10:00:30;7.53;;;6.30;;
9334;SDS011;4706;41.844;26.082;2024-03-23T10:02:58;8.27;;;6.30;;
9334;SDS011;4706;41.844;26.082;2024-03-23T10:05:27;6.30;;;5.80;;
9334;SDS011;4706;41.844;26.082;2024-03-23T10:07:54;7.82;;;5.45;;
9334;SDS011;4706;41.844;26.082;2024-03-23T10:10:19;6.70;;;5.63;;
9334;SDS011;4706;41.844;26.082;2024-03-23T10:12:47;6.68;;;5.63;;
9334;SDS011;4706;41.844;26.082;2024-03-23T10:15:24;9.10;;;5.85;;
9334;SDS011;4706;41.844;26.082;2024-03-23T10:17:50;7.00;;;6.28;;
9334;SDS011;4706;41.844;26.082;2024-03-23T10:20:20;7.45;;;6.75;;
9334;SDS011;4706;41.844;26.082;2024-03-23T10:22:51;7.05;;;6.45;;
9334;SDS011;4706;41.844;26.082;2024-03-23T10:25:17;6.78;;;6.15;;
9334;SDS011;4706;41.844;26.082;2024-03-23T10:27:57;6.65;;;6.03;;
9334;SDS011;4706;41.844;26.082;2024-03-23T10:30:24;6.20;;;5.70;;
9334;SDS011;4706;41.844;26.082;2024-03-23T10:33:06;6.47;;;5.88;;
9334;SDS011;4706;41.844;26.082;2024-03-23T10:35:36;7.45;;;5.90;;
9334;SDS011;4706;41.844;26.082;2024-03-23T10:38:04;6.80;;;5.57;;
9334;SDS011;4706;41.844;26.082;2024-03-23T10:40:31;6.80;;;6.20;;
9334;SDS011;4706;41.844;26.082;2024-03-23T10:42:59;6.35;;;5.55;;
9334;SDS011;4706;41.844;26.082;2024-03-23T10:45:25;6.47;;;5.35;;
9334;SDS011;4706;41.844;26.082;2024-03-23T10:47:51;6.38;;;5.10;;
9334;SDS011;4706;41.844;26.082;2024-03-23T10:50:17;5.80;;;5.25;;
9334;SDS011;4706;41.844;26.082;2024-03-23T10:52:45;4.97;;;4.57;;
9334;SDS011;4706;41.844;26.082;2024-03-23T10:55:13;6.68;;;5.00;;
9334;SDS011;4706;41.844;26.082;2024-03-23T10:57:49;6.30;;;5.38;;
9334;SDS011;4706;41.844;26.082;2024-03-23T11:00:18;6.05;;;5.22;;
9334;SDS011;4706;41.844;26.082;2024-03-23T11:02:44;5.70;;;5.10;;
9334;SDS011;4706;41.844;26.082;2024-03-23T11:05:29;10.35;;;5.80;;
9334;SDS011;4706;41.844;26.082;2024-03-23T11:07:55;5.43;;;4.93;;
9334;SDS011;4706;41.844;26.082;2024-03-23T11:10:27;5.25;;;4.50;;
9334;SDS011;4706;41.844;26.082;2024-03-23T11:12:54;5.60;;;4.07;;
9334;SDS011;4706;41.844;26.082;2024-03-23T11:15:20;4.57;;;4.10;;
9334;SDS011;4706;41.844;26.082;2024-03-23T11:18:05;4.47;;;4.03;;
9334;SDS011;4706;41.844;26.082;2024-03-23T11:20:33;4.18;;;3.85;;
9334;SDS011;4706;41.844;26.082;2024-03-23T11:23:04;5.57;;;4.07;;
9334;SDS011;4706;41.844;26.082;2024-03-23T11:25:30;4.57;;;3.78;;
9334;SDS011;4706;41.844;26.082;2024-03-23T11:27:56;5.20;;;3.78;;
9334;SDS011;4706;41.844;26.082;2024-03-23T11:32:52;5.57;;;4.00;;
9334;SDS011;4706;41.844;26.082;2024-03-23T11:38:09;3.90;;;3.53;;
9334;SDS011;4706;41.844;26.082;2024-03-23T11:40:36;3.33;;;3.05;;
9334;SDS011;4706;41.844;26.082;2024-03-23T11:43:07;3.88;;;3.35;;
9334;SDS011;4706;41.844;26.082;2024-03-23T11:45:43;4.28;;;3.15;;
9334;SDS011;4706;41.844;26.082;2024-03-23T11:48:11;4.35;;;3.30;;
9334;SDS011;4706;41.844;26.082;2024-03-23T11:50:43;3.83;;;3.40;;
9334;SDS011;4706;41.844;26.082;2024-03-23T11:55:49;3.65;;;3.35;;
9334;SDS011;4706;41.844;26.082;2024-03-23T11:58:16;4.25;;;3.22;;
9334;SDS011;4706;41.844;26.082;2024-03-23T12:00:54;3.28;;;2.88;;
9334;SDS011;4706;41.844;26.082;2024-03-23T12:03:24;5.20;;;3.13;;
9334;SDS011;4706;41.844;26.082;2024-03-23T12:06:00;9.63;;;7.65;;
9334;SDS011;4706;41.844;26.082;2024-03-23T12:08:34;2.95;;;2.60;;
9334;SDS011;4706;41.844;26.082;2024-03-23T12:11:13;3.50;;;3.13;;
9334;SDS011;4706;41.844;26.082;2024-03-23T12:13:40;3.35;;;2.75;;
9334;SDS011;4706;41.844;26.082;2024-03-23T12:16:16;3.55;;;3.00;;
9334;SDS011;4706;41.844;26.082;2024-03-23T12:18:42;2.97;;;2.72;;
9334;SDS011;4706;41.844;26.082;2024-03-23T12:21:09;3.33;;;2.75;;
9334;SDS011;4706;41.844;26.082;2024-03-23T12:23:35;3.83;;;2.80;;
9334;SDS011;4706;41.844;26.082;2024-03-23T12:26:01;3.55;;;3.25;;
9334;SDS011;4706;41.844;26.082;2024-03-23T12:28:27;3.28;;;2.97;;
9334;SDS011;4706;41.844;26.082;2024-03-23T12:30:53;3.15;;;2.80;;
9334;SDS011;4706;41.844;26.082;2024-03-23T12:33:19;4.15;;;3.33;;
9334;SDS011;4706;41.844;26.082;2024-03-23T12:35:48;2.90;;;2.70;;
9334;SDS011;4706;41.844;26.082;2024-03-23T12:38:15;2.70;;;2.50;;
9334;SDS011;4706;41.844;26.082;2024-03-23T12:40:41;2.75;;;2.53;;
9334;SDS011;4706;41.844;26.082;2024-03-23T12:43:06;2.65;;;2.45;;
9334;SDS011;4706;41.844;26.082;2024-03-23T12:45:33;2.90;;;2.70;;
9334;SDS011;4706;41.844;26.082;2024-03-23T12:47:58;2.95;;;2.17;;
9334;SDS011;4706;41.844;26.082;2024-03-23T12:50:24;3.10;;;2.80;;
9334;SDS011;4706;41.844;26.082;2024-03-23T12:52:49;2.60;;;2.40;;
9334;SDS011;4706;41.844;26.082;2024-03-23T12:55:15;2.47;;;2.28;;
9334;SDS011;4706;41.844;26.082;2024-03-23T12:57:40;2.40;;;2.20;;
9334;SDS011;4706;41.844;26.082;2024-03-23T13:00:06;2.78;;;2.58;;
9334;SDS011;4706;41.844;26.082;2024-03-23T13:02:34;2.55;;;2.30;;
9334;SDS011;4706;41.844;26.082;2024-03-23T13:05:00;2.47;;;2.13;;
9334;SDS011;4706;41.844;26.082;2024-03-23T13:07:25;2.65;;;2.40;;
9334;SDS011;4706;41.844;26.082;2024-03-23T13:09:51;3.17;;;2.65;;
9334;SDS011;4706;41.844;26.082;2024-03-23T13:12:18;3.45;;;2.72;;
9334;SDS011;4706;41.844;26.082;2024-03-23T13:14:44;3.30;;;2.97;;
9334;SDS011;4706;41.844;26.082;2024-03-23T13:17:10;3.53;;;3.08;;
9334;SDS011;4706;41.844;26.082;2024-03-23T13:19:36;4.22;;;3.13;;
9334;SDS011;4706;41.844;26.082;2024-03-23T13:22:02;3.42;;;3.05;;
9334;SDS011;4706;41.844;26.082;2024-03-23T13:24:29;3.20;;;2.90;;
9334;SDS011;4706;41.844;26.082;2024-03-23T13:26:55;2.90;;;2.70;;
9334;SDS011;4706;41.844;26.082;2024-03-23T13:29:21;3.67;;;2.67;;
9334;SDS011;4706;41.844;26.082;2024-03-23T13:31:48;2.83;;;2.63;;
9334;SDS011;4706;41.844;26.082;2024-03-23T13:34:14;4.18;;;3.28;;
9334;SDS011;4706;41.844;26.082;2024-03-23T13:36:41;2.95;;;2.65;;
9334;SDS011;4706;41.844;26.082;2024-03-23T13:39:07;3.17;;;2.70;;
9334;SDS011;4706;41.844;26.082;2024-03-23T13:41:42;3.03;;;2.72;;
9334;SDS011;4706;41.844;26.082;2024-03-23T13:44:10;3.10;;;2.83;;
9334;SDS011;4706;41.844;26.082;2024-03-23T13:46:37;3.50;;;2.80;;
9334;SDS011;4706;41.844;26.082;2024-03-23T13:49:03;3.50;;;3.17;;
9334;SDS011;4706;41.844;26.082;2024-03-23T13:51:29;3.55;;;2.70;;
9334;SDS011;4706;41.844;26.082;2024-03-23T13:53:55;3.55;;;3.00;;
9334;SDS011;4706;41.844;26.082;2024-03-23T13:56:26;3.58;;;3.28;;
9334;SDS011;4706;41.844;26.082;2024-03-23T13:58:55;2.92;;;2.55;;
9334;SDS011;4706;41.844;26.082;2024-03-23T14:01:21;3.38;;;3.08;;
9334;SDS011;4706;41.844;26.082;2024-03-23T14:03:47;3.65;;;2.40;;
9334;SDS011;4706;41.844;26.082;2024-03-23T14:06:12;3.80;;;3.42;;
9334;SDS011;4706;41.844;26.082;2024-03-23T14:08:38;3.20;;;2.90;;
9334;SDS011;4706;41.844;26.082;2024-03-23T14:11:13;4.88;;;4.40;;
9334;SDS011;4706;41.844;26.082;2024-03-23T14:13:39;3.17;;;2.53;;
9334;SDS011;4706;41.844;26.082;2024-03-23T14:16:05;3.70;;;2.75;;
9334;SDS011;4706;41.844;26.082;2024-03-23T14:18:31;2.65;;;2.30;;
9334;SDS011;4706;41.844;26.082;2024-03-23T14:20:57;2.85;;;2.65;;
9334;SDS011;4706;41.844;26.082;2024-03-23T14:23:24;2.95;;;2.65;;
9334;SDS011;4706;41.844;26.082;2024-03-23T14:25:52;2.85;;;2.65;;
9334;SDS011;4706;41.844;26.082;2024-03-23T14:28:18;3.10;;;2.80;;
9334;SDS011;4706;41.844;26.082;2024-03-23T14:30:43;2.60;;;2.40;;
9334;SDS011;4706;41.844;26.082;2024-03-23T14:33:09;3.08;;;2.78;;
9334;SDS011;4706;41.844;26.082;2024-03-23T14:35:35;3.90;;;3.38;;
9334;SDS011;4706;41.844;26.082;2024-03-23T14:38:01;3.97;;;2.80;;
9334;SDS011;4706;41.844;26.082;2024-03-23T14:40:27;2.88;;;2.67;;
9334;SDS011;4706;41.844;26.082;2024-03-23T14:42:54;2.85;;;2.60;;
9334;SDS011;4706;41.844;26.082;2024-03-23T14:45:20;3.00;;;2.80;;
9334;SDS011;4706;41.844;26.082;2024-03-23T14:47:46;5.10;;;2.95;;
9334;SDS011;4706;41.844;26.082;2024-03-23T14:50:12;3.03;;;2.72;;
9334;SDS011;4706;41.844;26.082;2024-03-23T14:52:41;4.18;;;3.40;;
9334;SDS011;4706;41.844;26.082;2024-03-23T14:55:07;3.08;;;2.80;;
9334;SDS011;4706;41.844;26.082;2024-03-23T14:57:34;2.90;;;2.70;;
9334;SDS011;4706;41.844;26.082;2024-03-23T15:00:00;5.32;;;3.83;;
9334;SDS011;4706;41.844;26.082;2024-03-23T15:02:26;3.00;;;2.65;;
9334;SDS011;4706;41.844;26.082;2024-03-23T15:04:53;3.65;;;2.60;;
9334;SDS011;4706;41.844;26.082;2024-03-23T15:07:19;2.92;;;2.40;;
9334;SDS011;4706;41.844;26.082;2024-03-23T15:09:45;3.00;;;2.80;;
9334;SDS011;4706;41.844;26.082;2024-03-23T15:12:10;3.47;;;2.90;;
9334;SDS011;4706;41.844;26.082;2024-03-23T15:14:36;3.20;;;2.45;;
9334;SDS011;4706;41.844;26.082;2024-03-23T15:17:01;2.78;;;2.50;;
9334;SDS011;4706;41.844;26.082;2024-03-23T15:19:32;3.17;;;2.88;;
9334;SDS011;4706;41.844;26.082;2024-03-23T15:21:57;3.72;;;3.42;;
9334;SDS011;4706;41.844;26.082;2024-03-23T15:24:23;3.50;;;3.00;;
9334;SDS011;4706;41.844;26.082;2024-03-23T15:26:48;3.25;;;2.65;;
9334;SDS011;4706;41.844;26.082;2024-03-23T15:29:15;3.00;;;2.80;;
9334;SDS011;4706;41.844;26.082;2024-03-23T15:31:42;3.40;;;3.10;;
9334;SDS011;4706;41.844;26.082;2024-03-23T15:34:08;2.67;;;2.47;;
9334;SDS011;4706;41.844;26.082;2024-03-23T15:36:37;3.20;;;3.00;;
9334;SDS011;4706;41.844;26.082;2024-03-23T15:39:05;3.90;;;3.30;;
9334;SDS011;4706;41.844;26.082;2024-03-23T15:41:31;3.60;;;3.25;;
9334;SDS011;4706;41.844;26.082;2024-03-23T15:43:58;4.95;;;3.10;;
9334;SDS011;4706;41.844;26.082;2024-03-23T15:46:23;4.57;;;3.25;;